Time;durP1;ratioP1;P1;durP2;ratioP2;P2;SDS_P1;SDS_P2;PMS_P1;PMS_P2;Temp;Humidity;BMP_temperature;BMP_pressure;BME280_temperature;BME280_humidity;BME280_pressure;Samples;Min_cycle;Max_cycle;Signal;HPM_P1;HPM_P2
2023/04/02 00:00:34;;;;;;;;;9.00;9.00;;;;;13.42;56.40;100799.38;5063745;28;45069;-65
2023/04/02 00:03:08;;;;;;;;;12.00;11.00;;;;;13.49;56.23;100813.78;5071997;28;45071;-64
2023/04/02 00:05:49;;;;;;;;;5.75;5.75;;;;;13.33;55.00;100788.50;5070633;28;45327;-65
2023/04/02 00:08:39;;;;;;;;;5.50;5.50;;;;;13.41;55.43;100818.13;5058897;28;46596;-64
2023/04/02 00:11:06;;;;;;;;;9.50;8.50;;;;;13.41;55.81;100819.06;5067483;28;45283;-64
2023/04/02 00:13:33;;;;;;;;;11.50;8.25;;;;;13.37;55.03;100825.22;5064882;28;45118;-64
2023/04/02 00:16:02;;;;;;;;;17.50;12.75;;;;;13.35;56.06;100824.31;5072102;28;45118;-63
2023/04/02 00:18:27;;;;;;;;;14.00;11.00;;;;;13.36;55.83;100820.72;5069012;28;46024;-64
2023/04/02 00:21:21;;;;;;;;;5.50;4.00;;;;;13.34;55.21;100827.88;5069340;28;45216;-61
2023/04/02 00:23:47;;;;;;;;;6.00;6.00;;;;;13.33;54.99;100820.72;5068796;28;45483;-63
2023/04/02 00:26:36;;;;;;;;;3.75;3.75;;;;;13.35;55.88;100829.69;5069349;28;45016;-63
2023/04/02 00:29:04;;;;;;;;;5.25;4.00;;;;;13.31;55.69;100829.56;5065866;28;45241;-61
2023/04/02 00:31:30;;;;;;;;;7.50;6.00;;;;;13.27;56.12;100825.94;5067825;28;45244;-62
2023/04/02 00:33:58;;;;;;;;;5.00;5.00;;;;;13.26;56.03;100818.75;5071809;28;44913;-62
2023/04/02 00:36:28;;;;;;;;;4.33;3.33;;;;;13.36;56.38;100839.53;5072197;28;44973;-63
2023/04/02 00:38:58;;;;;;;;;6.33;4.67;;;;;13.19;55.32;100827.59;5060761;28;45653;-63
2023/04/02 00:41:29;;;;;;;;;3.00;3.00;;;;;13.21;55.53;100841.91;5071194;28;45056;-63
2023/04/02 00:43:56;;;;;;;;;4.67;4.00;;;;;13.15;56.44;100836.44;5072410;28;45221;-65
2023/04/02 00:46:30;;;;;;;;;6.25;6.00;;;;;12.99;56.46;100836.19;5071136;28;45053;-63
2023/04/02 00:49:11;;;;;;;;;7.50;4.00;;;;;13.01;56.86;100842.47;5069926;28;47043;-62
2023/04/02 00:51:43;;;;;;;;;4.25;4.00;;;;;13.06;56.87;100846.13;5072248;28;45053;-61
2023/04/02 00:54:14;;;;;;;;;9.25;6.50;;;;;13.12;56.86;100845.34;5072015;28;45195;-63
2023/04/02 00:56:46;;;;;;;;;6.25;4.25;;;;;13.00;56.36;100823.66;5072039;28;45013;-64
2023/04/02 00:59:32;;;;;;;;;6.00;4.33;;;;;13.03;56.46;100843.44;5072020;28;45598;-66
2023/04/02 01:02:18;;;;;;;;;6.50;5.00;;;;;13.10;57.14;100847.13;5068949;28;45061;-64
2023/04/02 01:04:57;;;;;;;;;4.67;4.00;;;;;13.11;56.77;100850.69;5070507;28;45037;-63
2023/04/02 01:07:41;;;;;;;;;9.00;5.67;;;;;13.09;57.13;100862.28;5064012;28;45060;-62
2023/04/02 01:10:21;;;;;;;;;6.00;6.00;;;;;13.06;56.61;100858.66;5070025;28;45794;-64
2023/04/02 01:13:15;;;;;;;;;5.00;4.33;;;;;13.09;56.63;100870.34;5069381;28;45312;-65
2023/04/02 01:16:12;;;;;;;;;3.67;3.67;;;;;13.14;57.25;100865.06;5064910;28;44940;-62
2023/04/02 01:18:50;;;;;;;;;8.75;5.75;;;;;13.09;56.52;100870.34;5070892;28;45185;-62
2023/04/02 01:21:51;;;;;;;;;6.25;5.25;;;;;13.08;57.08;100873.91;5061763;28;45834;-63
2023/04/02 01:24:17;;;;;;;;;5.00;5.00;;;;;13.12;57.81;100874.88;5070308;28;45099;-62
2023/04/02 01:26:57;;;;;;;;;7.00;5.33;;;;;13.05;58.10;100879.22;5069173;28;45091;-63
2023/04/02 01:29:34;;;;;;;;;4.67;3.00;;;;;13.09;58.99;100874.81;5057963;28;45055;-62
2023/04/02 01:32:20;;;;;;;;;6.00;4.00;;;;;12.71;59.41;100816.91;5069270;28;46669;-64
2023/04/02 01:34:48;;;;;;;;;7.67;5.00;;;;;13.05;59.45;100867.56;5070861;28;45121;-66
2023/04/02 01:37:21;;;;;;;;;6.00;4.67;;;;;13.08;59.29;100881.97;5071026;28;45000;-62
2023/04/02 01:40:04;;;;;;;;;5.00;3.00;;;;;13.07;59.44;100885.50;5070286;28;45119;-62
2023/04/02 01:43:15;;;;;;;;;4.00;4.00;;;;;13.07;58.63;100882.81;5069193;28;46804;-62
2023/04/02 01:45:41;;;;;;;;;4.33;4.33;;;;;12.97;58.50;100879.94;5070621;28;45079;-63
2023/04/02 01:48:18;;;;;;;;;6.00;4.50;;;;;12.97;58.74;100885.28;5062740;28;44965;-62
2023/04/02 01:50:46;;;;;;;;;4.00;4.00;;;;;12.95;59.00;100892.41;5062720;28;45230;-63
2023/04/02 01:53:15;;;;;;;;;3.00;3.00;;;;;12.89;58.51;100882.50;5072053;28;45529;-63
2023/04/02 01:55:43;;;;;;;;;2.67;2.67;;;;;12.92;57.90;100890.59;5067320;28;45055;-61
2023/04/02 01:58:11;;;;;;;;;2.33;2.33;;;;;12.93;58.73;100899.53;5073047;28;45025;-61
2023/04/02 02:01:02;;;;;;;;;4.00;3.00;;;;;12.99;58.90;100891.63;5068354;28;45075;-62
2023/04/02 02:03:27;;;;;;;;;3.00;3.00;;;;;12.90;58.03;100885.19;5062115;28;45266;-62
2023/04/02 02:05:53;;;;;;;;;7.00;3.67;;;;;12.95;59.18;100897.78;5073350;28;45486;-63
2023/04/02 02:08:27;;;;;;;;;5.00;2.67;;;;;12.89;59.63;100903.94;5074854;28;45171;-61
2023/04/02 02:10:53;;;;;;;;;1.00;1.00;;;;;12.81;59.23;100885.00;5074666;28;45518;-63
2023/04/02 02:13:20;;;;;;;;;3.33;3.33;;;;;12.88;59.83;100904.81;5073840;28;45696;-62
2023/04/02 02:15:46;;;;;;;;;5.33;4.00;;;;;12.83;59.15;100910.06;5073630;28;45175;-63
2023/04/02 02:18:13;;;;;;;;;3.00;1.33;;;;;12.74;59.42;100899.19;5072855;28;45132;-62
2023/04/02 02:20:39;;;;;;;;;2.00;2.00;;;;;12.82;59.18;100921.69;5073123;28;45175;-62
2023/04/02 02:23:05;;;;;;;;;2.33;2.00;;;;;12.78;59.16;100909.06;5074331;28;45991;-62
2023/04/02 02:25:33;;;;;;;;;0.33;0.33;;;;;12.77;59.21;100925.13;5074287;28;45220;-62
2023/04/02 02:28:11;;;;;;;;;3.00;3.00;;;;;12.70;60.05;100930.41;5073364;28;45417;-62
2023/04/02 02:30:45;;;;;;;;;1.67;1.67;;;;;12.65;61.30;100924.00;5072043;28;45092;-62
2023/04/02 02:33:20;;;;;;;;;1.33;1.33;;;;;12.63;61.34;100935.59;5071486;28;45617;-62
2023/04/02 02:36:00;;;;;;;;;4.00;2.00;;;;;12.68;61.40;100936.56;5054876;28;45447;-62
2023/04/02 02:38:44;;;;;;;;;1.00;1.00;;;;;12.33;62.14;100880.47;5070850;28;45025;-63
2023/04/02 02:41:35;;;;;;;;;2.00;2.00;;;;;12.69;62.01;100941.97;5074310;28;45203;-63
2023/04/02 02:44:09;;;;;;;;;1.00;1.00;;;;;12.71;62.88;100948.25;5063214;28;45406;-63
2023/04/02 02:46:38;;;;;;;;;1.00;1.00;;;;;12.70;63.41;100954.53;5074306;28;45164;-62
2023/04/02 02:49:06;;;;;;;;;1.00;1.00;;;;;12.61;62.71;100951.63;5073849;28;45202;-65
2023/04/02 02:51:43;;;;;;;;;3.00;1.33;;;;;12.62;63.57;100960.56;5068742;28;45002;-64
2023/04/02 02:54:08;;;;;;;;;4.00;2.00;;;;;12.54;63.24;100960.44;5061891;28;45888;-63
2023/04/02 02:56:38;;;;;;;;;1.00;1.00;;;;;12.53;64.57;100961.28;5071149;28;45534;-63
2023/04/02 02:59:08;;;;;;;;;2.00;2.00;;;;;12.56;64.28;100964.03;5072341;28;44931;-65
2023/04/02 03:01:34;;;;;;;;;2.00;2.00;;;;;12.57;63.32;100967.59;5072195;28;45374;-65
2023/04/02 03:04:00;;;;;;;;;1.33;1.00;;;;;12.51;63.93;100965.72;5073757;28;45510;-64
2023/04/02 03:06:26;;;;;;;;;3.67;1.00;;;;;12.46;64.52;100970.97;5073730;28;45520;-65
2023/04/02 03:09:32;;;;;;;;;1.00;1.00;;;;;12.44;64.00;100969.09;5073598;28;45188;-65
2023/04/02 03:12:22;;;;;;;;;1.00;1.00;;;;;12.42;64.24;100970.84;5063771;28;45203;-64
2023/04/02 03:14:59;;;;;;;;;2.33;2.00;;;;;12.39;63.74;100977.06;5062034;28;50841;-64
2023/04/02 03:17:47;;;;;;;;;4.25;4.00;;;;;12.25;63.88;100944.59;5058780;28;45181;-63
2023/04/02 03:20:20;;;;;;;;;3.00;3.00;;;;;12.38;64.24;100969.88;5070762;28;45188;-63
2023/04/02 03:22:55;;;;;;;;;3.33;2.00;;;;;12.44;64.24;100975.41;5066206;28;45085;-63
2023/04/02 03:25:29;;;;;;;;;1.00;1.00;;;;;12.40;63.39;100989.56;5069759;28;45249;-64
2023/04/02 03:28:01;;;;;;;;;2.00;1.33;;;;;12.33;63.75;100988.53;5066322;28;45212;-62
2023/04/02 03:30:57;;;;;;;;;1.00;1.00;;;;;12.32;62.89;100991.16;5073244;28;45114;-62
2023/04/02 03:33:24;;;;;;;;;2.00;2.00;;;;;12.28;63.28;100994.66;5073057;28;44968;-65
2023/04/02 03:36:00;;;;;;;;;2.00;2.00;;;;;12.23;63.12;101001.69;5073175;28;45653;-63
2023/04/02 03:38:32;;;;;;;;;3.00;2.00;;;;;12.18;63.32;100998.91;5072844;28;45234;-64
2023/04/02 03:41:08;;;;;;;;;3.00;2.00;;;;;12.23;62.77;101013.31;5071905;28;45258;-63
2023/04/02 03:43:46;;;;;;;;;2.00;2.00;;;;;12.24;62.38;101017.81;5072066;28;45241;-64
2023/04/02 03:46:44;;;;;;;;;3.00;3.00;;;;;12.24;62.82;101012.44;5072405;28;45343;-63
2023/04/02 03:49:23;;;;;;;;;3.50;3.00;;;;;12.23;62.71;101018.66;5070219;28;44934;-65
2023/04/02 03:52:01;;;;;;;;;5.00;3.50;;;;;12.25;62.23;101016.91;5071779;28;45316;-65
2023/04/02 03:54:27;;;;;;;;;3.00;3.00;;;;;12.27;62.46;101007.13;5066700;28;45134;-65
2023/04/02 03:56:53;;;;;;;;;3.75;3.75;;;;;12.37;61.58;101018.06;5070389;28;46290;-64
2023/04/02 03:59:45;;;;;;;;;3.25;3.25;;;;;12.34;61.61;101027.88;5068090;28;45151;-63
2023/04/02 04:02:25;;;;;;;;;4.25;4.25;;;;;12.30;61.49;101011.66;5066996;28;45291;-62
2023/04/02 04:04:54;;;;;;;;;5.50;3.75;;;;;12.19;62.14;101003.38;5071848;28;44941;-63
2023/04/02 04:07:42;;;;;;;;;4.00;4.00;;;;;12.30;61.69;101035.78;5068501;28;45831;-64
2023/04/02 04:10:18;;;;;;;;;6.50;6.25;;;;;12.09;61.47;101034.41;5071053;28;45471;-63
2023/04/02 04:12:47;;;;;;;;;6.25;6.25;;;;;12.12;62.22;101046.94;5071087;28;45130;-62
2023/04/02 04:15:36;;;;;;;;;6.50;6.00;;;;;12.14;62.05;101040.78;5069594;28;45072;-63
2023/04/02 04:18:33;;;;;;;;;4.75;4.75;;;;;12.06;62.58;101046.78;5057231;28;45211;-63
2023/04/02 04:21:30;;;;;;;;;3.25;3.25;;;;;12.08;62.64;101043.31;5070376;28;44967;-66
2023/04/02 04:24:02;;;;;;;;;5.00;4.25;;;;;12.08;62.47;101053.13;5071535;28;45159;-63
2023/04/02 04:26:48;;;;;;;;;8.50;6.25;;;;;12.09;62.14;101058.50;5072148;28;45115;-63
2023/04/02 04:29:39;;;;;;;;;3.75;3.75;;;;;11.98;61.35;101055.56;5071366;28;46165;-65
2023/04/02 04:32:16;;;;;;;;;8.75;7.00;;;;;11.98;61.92;101060.91;5070344;28;44988;-65
2023/04/02 04:34:50;;;;;;;;;7.25;7.00;;;;;11.87;61.85;101037.38;5071694;28;45386;-62
2023/04/02 04:37:27;;;;;;;;;7.25;7.00;;;;;12.03;61.57;101061.03;5072137;28;45167;-63
2023/04/02 04:39:58;;;;;;;;;9.50;7.25;;;;;11.97;61.82;101059.09;5071500;28;46109;-63
2023/04/02 04:42:29;;;;;;;;;4.50;4.50;;;;;11.99;61.70;101069.84;5068451;28;45002;-63
2023/04/02 04:45:12;;;;;;;;;7.00;7.00;;;;;12.03;61.81;101071.75;5068313;28;45170;-61
2023/04/02 04:47:46;;;;;;;;;6.50;6.00;;;;;12.02;62.37;101063.66;5062537;28;45087;-65
2023/04/02 04:50:28;;;;;;;;;6.00;6.00;;;;;12.10;61.76;101078.16;5069535;28;46422;-66
2023/04/02 04:52:53;;;;;;;;;6.75;6.00;;;;;12.02;61.38;101075.28;5071206;28;45265;-65
2023/04/02 04:55:41;;;;;;;;;8.00;5.50;;;;;12.05;62.24;101087.84;5069874;28;44969;-64
2023/04/02 04:58:10;;;;;;;;;7.50;7.00;;;;;12.09;62.51;101095.09;5062341;28;45537;-65
2023/04/02 05:00:54;;;;;;;;;7.25;7.25;;;;;12.05;61.80;101091.44;5061732;28;45240;-64
2023/04/02 05:03:29;;;;;;;;;14.00;11.00;;;;;12.09;61.80;101101.38;5056935;28;45567;-66
2023/04/02 05:06:02;;;;;;;;;8.25;8.25;;;;;12.01;62.38;101107.38;5065205;28;45003;-65
2023/04/02 05:08:34;;;;;;;;;8.00;8.00;;;;;12.04;62.66;101107.44;5071138;28;45148;-67
2023/04/02 05:11:10;;;;;;;;;12.00;8.00;;;;;12.07;62.92;101110.22;5056380;28;45603;-63
2023/04/02 05:14:00;;;;;;;;;11.50;9.75;;;;;11.99;61.71;101115.34;5068703;28;45222;-65
2023/04/02 05:16:35;;;;;;;;;8.00;6.00;;;;;11.96;61.25;101124.22;5066602;28;45037;-64
2023/04/02 05:19:15;;;;;;;;;8.00;6.75;;;;;11.93;61.48;101126.81;5069741;28;45320;-62
2023/04/02 05:21:52;;;;;;;;;11.75;8.25;;;;;12.01;63.08;101135.06;5064557;28;45866;-62
2023/04/02 05:24:37;;;;;;;;;9.50;7.75;;;;;12.07;61.98;101139.69;5060026;28;45149;-63
2023/04/02 05:27:14;;;;;;;;;13.00;8.25;;;;;11.97;61.53;101130.47;5069363;28;45161;-65
2023/04/02 05:29:46;;;;;;;;;11.50;9.25;;;;;12.00;61.75;101135.94;5070978;28;45158;-65
2023/04/02 05:32:16;;;;;;;;;12.00;11.25;;;;;12.05;61.94;101141.41;5070856;28;45377;-63
2023/04/02 05:34:48;;;;;;;;;9.75;9.75;;;;;12.03;61.77;101145.78;5071383;28;45071;-65
2023/04/02 05:37:22;;;;;;;;;12.50;9.50;;;;;11.97;61.86;101139.41;5053806;28;44992;-65
2023/04/02 05:39:54;;;;;;;;;10.25;7.00;;;;;12.01;61.47;101150.22;5065350;28;45166;-63
2023/04/02 05:42:26;;;;;;;;;7.00;7.00;;;;;12.01;61.72;101161.84;5070683;28;47113;-62
2023/04/02 05:45:07;;;;;;;;;9.00;7.00;;;;;12.00;61.10;101169.84;5071199;28;45016;-66
2023/04/02 05:47:34;;;;;;;;;11.75;8.00;;;;;12.02;61.67;101169.00;5071076;28;45654;-64
2023/04/02 05:50:03;;;;;;;;;10.00;7.75;;;;;11.99;61.88;101163.56;5070963;28;44999;-62
2023/04/02 05:52:34;;;;;;;;;13.25;7.75;;;;;11.84;61.27;101160.44;5070461;28;45592;-64
2023/04/02 05:55:28;;;;;;;;;9.50;9.00;;;;;11.88;62.64;101186.41;5068199;28;45152;-62
2023/04/02 05:58:01;;;;;;;;;7.25;7.25;;;;;11.85;61.37;101173.88;5071381;28;45178;-61
2023/04/02 06:00:38;;;;;;;;;10.50;7.75;;;;;11.91;61.48;101184.78;5071075;28;45135;-60
2023/04/02 06:03:33;;;;;;;;;7.75;7.50;;;;;11.87;62.22;101179.28;5069726;28;46100;-63
2023/04/02 06:06:05;;;;;;;;;6.00;6.00;;;;;11.90;61.57;101182.03;5070818;28;45202;-62
2023/04/02 06:08:40;;;;;;;;;8.25;8.25;;;;;11.93;61.24;101183.06;5070961;28;45317;-63
2023/04/02 06:11:13;;;;;;;;;9.50;7.00;;;;;11.95;61.75;101184.00;5069302;28;45343;-66
2023/04/02 06:13:38;;;;;;;;;6.50;6.50;;;;;11.91;61.93;101186.50;5070189;28;46811;-65
2023/04/02 06:16:05;;;;;;;;;4.75;3.25;;;;;11.89;61.54;101186.47;5069003;28;44894;-63
2023/04/02 06:18:35;;;;;;;;;7.75;7.75;;;;;11.95;61.35;101193.81;5068592;28;45265;-66
2023/04/02 06:21:01;;;;;;;;;6.00;6.00;;;;;11.95;61.46;101201.84;5069723;28;44989;-62
2023/04/02 06:23:31;;;;;;;;;6.75;5.00;;;;;11.89;60.96;101205.19;5069762;28;45169;-65
2023/04/02 06:26:18;;;;;;;;;6.00;6.00;;;;;11.89;61.28;101204.31;5055640;28;44950;-63
2023/04/02 06:29:08;;;;;;;;;6.25;6.25;;;;;11.84;61.45;101213.97;5070529;28;45221;-63
2023/04/02 06:31:39;;;;;;;;;9.00;6.25;;;;;11.86;61.14;101220.28;5064225;28;45179;-62
2023/04/02 06:34:10;;;;;;;;;8.00;6.75;;;;;11.80;61.19;101204.97;5070743;28;45742;-63
2023/04/02 06:36:36;;;;;;;;;8.75;6.75;;;;;11.92;61.20;101217.81;5072073;28;45151;-61
2023/04/02 06:39:09;;;;;;;;;8.50;8.00;;;;;11.90;61.57;101227.56;5064771;28;45207;-64
2023/04/02 06:41:35;;;;;;;;;9.00;6.00;;;;;11.87;60.82;101228.34;5069575;28;45166;-66
2023/04/02 06:44:08;;;;;;;;;4.00;4.00;;;;;11.72;61.21;101211.88;5069069;28;45521;-63
2023/04/02 06:46:51;;;;;;;;;10.75;5.75;;;;;11.75;61.58;101217.31;5070475;28;45117;-62
2023/04/02 06:49:29;;;;;;;;;6.75;6.75;;;;;11.78;61.32;101238.81;5073606;28;45143;-63
2023/04/02 06:51:57;;;;;;;;;6.50;6.00;;;;;11.79;62.10;101236.16;5063039;28;45172;-64
2023/04/02 06:54:22;;;;;;;;;8.00;7.00;;;;;11.82;61.88;101246.06;5067484;28;46373;-65
2023/04/02 06:56:55;;;;;;;;;7.75;6.50;;;;;11.80;61.77;101245.13;5073579;28;45173;-66
2023/04/02 06:59:21;;;;;;;;;5.00;5.00;;;;;11.74;61.89;101236.91;5072839;28;45040;-64
2023/04/02 07:02:01;;;;;;;;;13.25;7.50;;;;;11.83;61.83;101242.53;5072113;28;45099;-64
2023/04/02 07:04:26;;;;;;;;;11.50;8.00;;;;;11.89;61.78;101252.50;5068748;28;45888;-65
2023/04/02 07:06:52;;;;;;;;;6.50;6.50;;;;;11.90;62.22;101259.69;5071922;28;45353;-70
2023/04/02 07:09:18;;;;;;;;;10.75;7.75;;;;;11.92;61.35;101258.88;5068038;28;45438;-69
2023/04/02 07:11:43;;;;;;;;;10.00;7.00;;;;;11.89;61.44;101260.53;5064761;28;45262;-66
2023/04/02 07:14:12;;;;;;;;;7.25;7.00;;;;;11.95;61.46;101269.69;5066826;28;45649;-71
2023/04/02 07:16:39;;;;;;;;;7.25;6.75;;;;;11.92;61.77;101266.03;5070821;28;45702;-73
2023/04/02 07:19:05;;;;;;;;;9.50;8.25;;;;;11.85;61.54;101270.25;5072803;28;45111;-71
2023/04/02 07:21:30;;;;;;;;;14.50;9.00;;;;;11.84;61.38;101281.81;5065461;28;45147;-72
2023/04/02 07:23:56;;;;;;;;;8.25;7.00;;;;;11.88;61.02;101285.47;5072692;28;45256;-71
2023/04/02 07:26:26;;;;;;;;;8.00;8.00;;;;;11.82;61.97;101282.66;5071334;28;44996;-68
2023/04/02 07:28:51;;;;;;;;;10.50;9.00;;;;;11.86;61.73;101296.13;5066163;28;45237;-69
2023/04/02 07:31:26;;;;;;;;;8.25;7.75;;;;;11.93;61.92;101297.28;5065863;28;45280;-68
2023/04/02 07:33:56;;;;;;;;;10.50;9.50;;;;;11.63;62.02;101236.56;5061086;28;45500;-70
2023/04/02 07:36:23;;;;;;;;;8.25;8.25;;;;;11.97;61.68;101309.91;5064843;28;45019;-65
2023/04/02 07:38:48;;;;;;;;;11.75;11.75;;;;;11.91;60.82;101307.97;5066699;28;45111;-67
2023/04/02 07:41:15;;;;;;;;;10.00;8.25;;;;;11.93;61.02;101311.59;5060732;28;45283;-65
2023/04/02 07:43:41;;;;;;;;;11.75;9.50;;;;;11.85;61.30;101307.72;5064292;28;46458;-66
2023/04/02 07:46:08;;;;;;;;;12.25;10.25;;;;;11.94;60.51;101323.19;5067969;28;45230;-69
2023/04/02 07:48:34;;;;;;;;;12.25;9.75;;;;;11.94;60.73;101333.91;5071638;28;45048;-67
2023/04/02 07:51:02;;;;;;;;;8.25;8.00;;;;;11.91;61.09;101337.41;5069644;28;45233;-64
2023/04/02 07:53:37;;;;;;;;;8.25;7.75;;;;;11.92;60.92;101336.53;5066522;28;45762;-61
2023/04/02 07:56:04;;;;;;;;;16.25;10.25;;;;;11.91;61.81;101337.41;5069344;28;45687;-64
2023/04/02 07:58:30;;;;;;;;;10.50;10.00;;;;;11.95;61.89;101343.75;5064304;28;45132;-65
2023/04/02 08:00:56;;;;;;;;;9.75;9.75;;;;;11.76;61.24;101326.19;5057611;28;45317;-63
2023/04/02 08:03:22;;;;;;;;;13.50;10.75;;;;;11.83;61.98;101348.69;5071104;28;45695;-62
2023/04/02 08:05:55;;;;;;;;;10.50;10.00;;;;;11.85;62.42;101342.53;5067156;28;44732;-64
2023/04/02 08:08:22;;;;;;;;;10.50;9.25;;;;;11.88;62.09;101355.09;5065979;28;44991;-68
2023/04/02 08:10:48;;;;;;;;;9.25;7.75;;;;;11.91;61.56;101347.16;5064242;28;45107;-66
2023/04/02 08:13:15;;;;;;;;;9.75;9.75;;;;;11.91;61.52;101344.47;5060361;28;45323;-62
2023/04/02 08:15:41;;;;;;;;;12.50;9.75;;;;;11.95;60.96;101359.84;5069269;28;45292;-64
2023/04/02 08:18:07;;;;;;;;;15.75;14.50;;;;;11.73;62.04;101318.97;5071883;28;45149;-63
2023/04/02 08:20:33;;;;;;;;;16.50;13.00;;;;;12.03;60.88;101369.00;5064709;28;45181;-62
2023/04/02 08:22:59;;;;;;;;;14.75;12.75;;;;;11.83;61.03;101349.63;5061345;28;47713;-62
2023/04/02 08:25:25;;;;;;;;;15.00;11.50;;;;;11.86;62.21;101363.06;5063917;28;45035;-64
2023/04/02 08:27:51;;;;;;;;;14.50;12.25;;;;;11.83;62.18;101354.03;5070273;28;45001;-64
2023/04/02 08:30:16;;;;;;;;;17.25;13.75;;;;;11.94;61.52;101379.44;5059210;28;47506;-62
2023/04/02 08:32:42;;;;;;;;;16.00;12.50;;;;;11.96;61.89;101375.94;5065614;28;45456;-61
2023/04/02 08:35:09;;;;;;;;;12.00;11.50;;;;;11.97;60.78;101377.75;5067967;28;45182;-63
2023/04/02 08:37:35;;;;;;;;;13.75;11.25;;;;;11.97;61.40;101375.06;5070868;28;45095;-63
2023/04/02 08:40:00;;;;;;;;;11.75;10.25;;;;;11.90;61.21;101364.09;5072426;28;45157;-62
2023/04/02 08:42:36;;;;;;;;;8.50;7.75;;;;;11.97;60.71;101371.50;5066035;28;45631;-61
2023/04/02 08:45:33;;;;;;;;;7.00;7.00;;;;;11.94;61.24;101372.28;5067629;28;45135;-64
2023/04/02 08:48:01;;;;;;;;;7.25;6.00;;;;;12.03;60.08;101387.75;5055703;27;45508;-65
2023/04/02 08:50:36;;;;;;;;;10.00;9.25;;;;;12.04;59.08;101373.47;5059087;28;45457;-62
2023/04/02 08:53:05;;;;;;;;;10.00;9.50;;;;;12.11;59.82;101394.25;5060417;28;47490;-64
2023/04/02 08:55:41;;;;;;;;;10.75;9.50;;;;;12.14;59.82;101391.69;5069150;28;45202;-63
2023/04/02 08:58:30;;;;;;;;;10.50;9.00;;;;;12.23;59.87;101407.09;5066277;28;45496;-61
2023/04/02 09:00:59;;;;;;;;;10.25;8.75;;;;;12.31;58.54;101402.00;5062538;28;46264;-66
2023/04/02 09:03:44;;;;;;;;;7.75;7.75;;;;;12.28;59.14;101423.31;5067556;28;46728;-64
2023/04/02 09:06:15;;;;;;;;;8.50;8.25;;;;;12.24;59.32;101421.41;5056564;28;45584;-63
2023/04/02 09:08:42;;;;;;;;;12.50;11.25;;;;;12.23;59.18;101433.00;5071627;28;45292;-62
2023/04/02 09:11:13;;;;;;;;;12.75;10.75;;;;;12.27;59.41;101448.28;5067883;28;45186;-64
2023/04/02 09:13:45;;;;;;;;;10.00;10.00;;;;;12.22;59.51;101444.56;5069505;28;45516;-62
2023/04/02 09:16:13;;;;;;;;;12.50;9.75;;;;;12.22;59.57;101450.81;5064059;28;46469;-62
2023/04/02 09:18:39;;;;;;;;;12.25;9.25;;;;;12.24;58.54;101454.47;5062173;28;45206;-61
2023/04/02 09:21:20;;;;;;;;;17.25;11.25;;;;;12.19;58.64;101450.72;5065010;28;45235;-62
2023/04/02 09:23:46;;;;;;;;;12.50;12.00;;;;;12.16;59.22;101447.97;5061518;28;45598;-63
2023/04/02 09:26:26;;;;;;;;;12.75;10.75;;;;;12.12;58.74;101460.34;5065738;28;45452;-62
2023/04/02 09:29:11;;;;;;;;;13.25;12.50;;;;;12.13;58.87;101461.28;5065236;28;45114;-62
2023/04/02 09:31:43;;;;;;;;;12.00;10.75;;;;;12.10;59.14;101453.13;5062671;28;45683;-61
2023/04/02 09:34:29;;;;;;;;;14.00;12.50;;;;;12.10;59.14;101472.78;5069080;28;46295;-64
2023/04/02 09:36:55;;;;;;;;;9.50;9.50;;;;;12.13;59.44;101461.28;5058679;28;45146;-64
2023/04/02 09:39:27;;;;;;;;;11.25;9.50;;;;;12.20;59.22;101470.41;5069958;28;44927;-65
2023/04/02 09:41:52;;;;;;;;;12.00;12.00;;;;;12.19;59.37;101468.56;5069812;28;45246;-67
2023/04/02 09:44:29;;;;;;;;;11.00;11.00;;;;;12.29;59.31;101473.34;5071360;28;44998;-65
2023/04/02 09:47:02;;;;;;;;;12.25;12.25;;;;;12.28;58.44;101474.22;5061820;28;45217;-65
2023/04/02 09:49:31;;;;;;;;;12.50;11.25;;;;;12.27;58.64;101480.44;5065250;28;45083;-62
2023/04/02 09:52:28;;;;;;;;;35.50;26.25;;;;;12.33;58.20;101486.00;5056974;28;45164;-65
2023/04/02 09:55:26;;;;;;;;;15.00;12.75;;;;;12.42;59.17;101488.94;5054403;28;45201;-66
2023/04/02 09:58:10;;;;;;;;;17.25;15.00;;;;;12.37;57.95;101487.00;5058410;28;45084;-65
2023/04/02 10:00:36;;;;;;;;;11.25;9.25;;;;;12.29;57.84;101498.41;5069035;28;45130;-63
2023/04/02 10:03:25;;;;;;;;;22.00;13.50;;;;;12.29;58.80;101492.09;5059589;28;45213;-64
2023/04/02 10:06:12;;;;;;;;;14.00;14.00;;;;;12.21;58.27;101477.56;5061453;28;45160;-64
2023/04/02 10:08:40;;;;;;;;;16.25;11.75;;;;;12.27;58.85;101502.78;5070370;28;45017;-62
2023/04/02 10:11:32;;;;;;;;;12.25;10.75;;;;;12.32;58.08;101511.91;5072861;28;45301;-65
2023/04/02 10:14:10;;;;;;;;;11.25;8.00;;;;;12.31;57.38;101522.56;5060347;28;45053;-65
2023/04/02 10:16:40;;;;;;;;;15.75;10.25;;;;;12.16;57.34;101512.25;5063820;28;45355;-66
2023/04/02 10:19:21;;;;;;;;;17.75;11.50;;;;;12.25;57.19;101519.69;5065883;28;45066;-66
2023/04/02 10:21:51;;;;;;;;;15.00;11.75;;;;;12.23;57.17;101533.03;5066451;28;45099;-65
2023/04/02 10:24:17;;;;;;;;;12.50;11.00;;;;;12.18;56.96;101537.31;5065333;28;45104;-64
2023/04/02 10:26:45;;;;;;;;;9.00;8.25;;;;;12.19;57.11;101539.13;5061188;28;45737;-65
2023/04/02 10:29:35;;;;;;;;;20.00;16.25;;;;;12.25;57.92;101544.69;5062608;28;45442;-65
2023/04/02 10:32:16;;;;;;;;;19.00;12.00;;;;;12.27;57.55;101545.66;5064074;28;45142;-65
2023/04/02 10:34:44;;;;;;;;;16.50;10.00;;;;;12.26;56.86;101542.91;5067610;28;45309;-65
2023/04/02 10:37:10;;;;;;;;;11.25;9.25;;;;;12.25;56.83;101547.38;5065679;28;45341;-66
2023/04/02 10:39:58;;;;;;;;;20.25;15.25;;;;;12.26;57.13;101556.31;5059644;28;45197;-66
2023/04/02 10:42:36;;;;;;;;;14.50;11.50;;;;;12.32;56.94;101552.09;5067680;28;45216;-64
2023/04/02 10:45:17;;;;;;;;;18.00;12.50;;;;;12.41;57.72;101553.25;5070881;28;45108;-64
2023/04/02 10:47:54;;;;;;;;;17.75;13.00;;;;;12.44;57.38;101556.91;5062431;28;46131;-65
2023/04/02 10:50:41;;;;;;;;;11.50;8.50;;;;;12.45;56.96;101560.50;5065955;28;45071;-64
2023/04/02 10:53:15;;;;;;;;;11.25;9.25;;;;;12.51;56.98;101563.38;5067374;28;45832;-64
2023/04/02 10:55:51;;;;;;;;;17.00;13.25;;;;;12.58;56.71;101556.44;5068879;28;45292;-63
2023/04/02 10:58:22;;;;;;;;;17.50;11.00;;;;;12.62;55.70;101558.34;5063475;28;45599;-64
2023/04/02 11:00:51;;;;;;;;;13.00;10.50;;;;;12.58;56.33;101530.53;5064755;28;45566;-65
2023/04/02 11:03:27;;;;;;;;;14.50;11.75;;;;;12.77;56.27;101557.91;5070790;28;45266;-64
2023/04/02 11:05:56;;;;;;;;;14.00;13.00;;;;;12.75;55.26;101565.00;5069690;28;45270;-64
2023/04/02 11:08:30;;;;;;;;;15.25;9.00;;;;;12.73;55.32;101568.53;5073262;28;45055;-64
2023/04/02 11:11:07;;;;;;;;;13.25;12.50;;;;;12.80;56.42;101575.03;5066842;28;45056;-66
2023/04/02 11:14:05;;;;;;;;;14.75;14.25;;;;;12.77;56.11;101565.94;5064090;28;45392;-63
2023/04/02 11:16:31;;;;;;;;;18.00;12.50;;;;;12.83;55.79;101569.72;5066112;28;45257;-64
2023/04/02 11:19:19;;;;;;;;;19.25;15.00;;;;;12.88;55.64;101577.91;5063478;28;45409;-66
2023/04/02 11:22:02;;;;;;;;;14.75;12.25;;;;;12.78;55.78;101570.47;5066387;28;45219;-65
2023/04/02 11:24:41;;;;;;;;;13.00;12.50;;;;;12.88;56.09;101585.97;5068790;28;44873;-64
2023/04/02 11:27:10;;;;;;;;;16.25;15.00;;;;;12.88;55.34;101585.97;5068730;28;45365;-66
2023/04/02 11:29:48;;;;;;;;;13.50;12.00;;;;;12.89;55.22;101586.00;5058749;28;45263;-64
2023/04/02 11:32:13;;;;;;;;;16.50;14.50;;;;;12.91;55.48;101594.09;5060901;28;45147;-65
2023/04/02 11:34:47;;;;;;;;;19.75;14.50;;;;;12.98;55.71;101590.72;5071611;28;45483;-64
2023/04/02 11:37:36;;;;;;;;;19.75;17.00;;;;;13.03;55.31;101583.75;5072098;28;45549;-64
2023/04/02 11:40:10;;;;;;;;;16.00;13.50;;;;;13.02;54.80;101598.03;5072806;28;45214;-64
2023/04/02 11:42:40;;;;;;;;;18.00;13.75;;;;;12.99;55.13;101605.06;5071823;28;44918;-65
2023/04/02 11:45:27;;;;;;;;;40.00;30.25;;;;;12.87;55.36;101598.47;5063018;28;45176;-65
2023/04/02 11:47:58;;;;;;;;;21.00;14.00;;;;;12.79;55.57;101597.31;5061070;28;44915;-65
2023/04/02 11:50:40;;;;;;;;;22.25;15.50;;;;;12.79;55.45;101599.09;5064820;28;45437;-64
2023/04/02 11:53:12;;;;;;;;;20.00;15.25;;;;;12.81;55.28;101613.47;5067302;28;45083;-63